This is the latest recevied weather packets stored in our database for station/object AA7DG. If no packets are shown the sender has not sent any weather packets the latest 10 day(s).
| Time | Temp. | Humidity | Pressure | Rain* | Wind** | Luminosity | Snow |
|---|---|---|---|---|---|---|---|
| 1777582506 | 22.78° C | 23% | 1020.7 hPa | - | - | - | - |
| 1777581301 | 22.78° C | 25% | 1021 hPa | - | - | - | - |
| 1777579201 | 22.78° C | 26% | 1021.3 hPa | - | - | - | - |
| 1777578301 | 21.67° C | 27% | 1021.4 hPa | - | - | - | - |
| 1777577102 | 21.67° C | 28% | 1021.7 hPa | - | - | - | - |
| 1777575900 | 21.11° C | 31% | 1022 hPa | - | - | - | - |
| 1777574723 | 20.56° C | 35% | 1022.4 hPa | - | - | - | - |
| 1777569001 | 16.11° C | 51% | 1023.7 hPa | - | - | - | - |
| 1777568102 | 15° C | 55% | 1023.7 hPa | - | - | - | - |
| 1777565701 | 11.67° C | 67% | 1024 hPa | - | - | - | - |
| 1777563903 | 10.56° C | 69% | 1024.4 hPa | - | - | - | - |
| 1777563601 | 10.56° C | 68% | 1024.4 hPa | - | - | - | - |
| 1777563301 | 10.56° C | 69% | 1024.4 hPa | - | - | - | - |
| 1777563006 | 10° C | 69% | 1024.4 hPa | - | - | - | - |
| 1777562401 | 10° C | 69% | 1024.5 hPa | - | - | - | - |
| 1777562101 | 10° C | 70% | 1024.7 hPa | - | - | - | - |
| 1777561501 | 9.44° C | 74% | 1024.7 hPa | - | - | - | - |
| 1777561216 | 8.89° C | 76% | 1024.7 hPa | - | - | - | - |
| 1777560601 | 7.78° C | 82% | 1024.6 hPa | - | - | - | - |
| 1777551018 | 3.33° C | 91% | 1023.7 hPa | - | - | - | - |
| 1777549528 | 3.89° C | 91% | 1023.7 hPa | - | - | - | - |
| 1777547701 | 3.89° C | 90% | 1023.7 hPa | - | - | - | - |
| 1777546825 | 4.44° C | 89% | 1023.7 hPa | - | - | - | - |
| 1777543803 | 5° C | 89% | 1023.5 hPa | - | - | - | - |
| 1777543202 | 5° C | 88% | 1023.4 hPa | - | - | - | - |
* Rain since midnight (hover to see other rain measurements)
** Current wind speed in m/s (hover to see current wind gust speed)